Time;durP1;ratioP1;P1;durP2;ratioP2;P2;SDS_P1;SDS_P2;PMS_P1;PMS_P2;Temp;Humidity;BMP_temperature;BMP_pressure;BME280_temperature;BME280_humidity;BME280_pressure;Samples;Min_cycle;Max_cycle;Signal;HPM_P1;HPM_P2
2023/11/05 00:02:01;;;;;;;8.73;8.53;;;23.80;64.70;;;;;;5034155;28;20856;-65
2023/11/05 00:04:28;;;;;;;9.20;8.90;;;23.80;64.70;;;;;;5034197;28;20842;-65
2023/11/05 00:06:55;;;;;;;9.03;8.83;;;23.80;64.70;;;;;;5033600;28;20496;-64
2023/11/05 00:09:22;;;;;;;9.20;9.00;;;23.80;64.90;;;;;;5025977;28;20477;-64
2023/11/05 00:11:49;;;;;;;9.80;9.50;;;23.80;64.80;;;;;;5033813;28;20491;-64
2023/11/05 00:14:16;;;;;;;9.63;9.33;;;23.80;64.90;;;;;;5034252;28;20893;-63
2023/11/05 00:16:44;;;;;;;9.80;9.60;;;23.70;64.80;;;;;;5033990;28;20511;-63
2023/11/05 00:19:11;;;;;;;9.13;8.83;;;23.80;64.90;;;;;;5033484;28;20488;-64
2023/11/05 00:21:38;;;;;;;9.83;9.43;;;23.70;64.90;;;;;;5033962;28;20560;-63
2023/11/05 00:24:06;;;;;;;9.33;9.13;;;23.70;65.00;;;;;;5034025;28;20968;-64
2023/11/05 00:26:33;;;;;;;10.33;9.97;;;23.70;64.90;;;;;;5033779;28;20519;-64
2023/11/05 00:29:00;;;;;;;9.60;9.40;;;23.70;65.00;;;;;;5025452;28;20878;-65
2023/11/05 00:31:27;;;;;;;9.63;9.37;;;23.70;65.00;;;;;;5033116;28;20940;-64
2023/11/05 00:33:55;;;;;;;8.73;8.33;;;23.70;65.00;;;;;;5033609;28;21000;-63
2023/11/05 00:36:22;;;;;;;8.73;8.53;;;23.70;65.10;;;;;;5033501;28;20964;-64
2023/11/05 00:38:50;;;;;;;8.87;8.67;;;23.70;65.00;;;;;;5033351;28;20539;-64
2023/11/05 00:41:17;;;;;;;8.53;8.33;;;23.70;65.10;;;;;;5033529;28;20578;-64
2023/11/05 00:43:44;;;;;;;8.97;8.67;;;23.70;65.10;;;;;;5033497;28;20481;-63
2023/11/05 00:46:12;;;;;;;8.70;8.50;;;23.70;65.10;;;;;;5033187;28;20516;-64
2023/11/05 00:48:39;;;;;;;8.57;8.37;;;23.70;65.20;;;;;;5033178;28;20452;-64
2023/11/05 00:51:07;;;;;;;9.00;8.80;;;23.70;65.20;;;;;;5025047;28;20486;-64
2023/11/05 00:53:34;;;;;;;9.00;8.80;;;23.70;65.30;;;;;;5033335;28;20472;-64
2023/11/05 00:56:01;;;;;;;8.93;8.70;;;23.60;65.20;;;;;;5033003;28;20476;-65
2023/11/05 00:58:28;;;;;;;8.47;8.27;;;23.70;65.40;;;;;;5033152;28;20491;-64
2023/11/05 01:00:55;;;;;;;8.60;8.40;;;23.70;65.30;;;;;;5033073;28;20995;-63
2023/11/05 01:03:22;;;;;;;8.10;7.87;;;23.70;65.40;;;;;;5033112;28;20496;-63
2023/11/05 01:05:49;;;;;;;9.03;8.73;;;23.60;65.20;;;;;;5032499;28;20473;-63
2023/11/05 01:08:17;;;;;;;8.73;8.50;;;23.70;65.40;;;;;;5025360;28;20603;-63
2023/11/05 01:10:44;;;;;;;8.30;8.10;;;23.60;65.30;;;;;;5033304;28;20480;-63
2023/11/05 01:13:11;;;;;;;9.20;9.00;;;23.60;65.30;;;;;;5032884;28;20437;-63
2023/11/05 01:15:38;;;;;;;8.80;8.60;;;23.60;65.40;;;;;;5032768;28;20484;-63
2023/11/05 01:18:05;;;;;;;9.03;8.77;;;23.60;65.40;;;;;;5032721;28;20489;-63
2023/11/05 01:20:32;;;;;;;8.40;8.20;;;23.60;65.40;;;;;;5032670;28;20484;-63
2023/11/05 01:22:59;;;;;;;8.60;8.40;;;23.60;65.40;;;;;;5032836;28;20484;-63
2023/11/05 01:25:27;;;;;;;8.20;8.00;;;23.60;65.40;;;;;;5032788;28;20473;-63
2023/11/05 01:27:54;;;;;;;8.60;8.40;;;23.60;65.50;;;;;;5024363;28;20496;-63
2023/11/05 01:30:21;;;;;;;8.70;8.20;;;23.60;65.60;;;;;;5032565;28;21066;-63
2023/11/05 01:32:47;;;;;;;8.60;8.40;;;23.60;65.60;;;;;;5032486;28;20533;-63
2023/11/05 01:35:14;;;;;;;8.80;8.60;;;23.60;65.60;;;;;;5024713;28;20473;-63
2023/11/05 01:37:41;;;;;;;9.00;8.80;;;23.60;65.70;;;;;;5032365;28;20505;-62
2023/11/05 01:40:09;;;;;;;8.43;8.23;;;23.60;65.70;;;;;;5032105;28;20492;-63
2023/11/05 01:42:37;;;;;;;8.93;8.73;;;23.60;65.80;;;;;;5032184;28;20991;-63
2023/11/05 01:45:05;;;;;;;8.27;8.10;;;23.50;65.70;;;;;;5032529;28;20477;-64
2023/11/05 01:47:31;;;;;;;8.57;8.37;;;23.50;65.70;;;;;;5031862;28;20556;-64
2023/11/05 01:49:58;;;;;;;8.97;8.57;;;23.60;65.80;;;;;;5032461;28;20487;-64
2023/11/05 01:52:26;;;;;;;9.73;9.33;;;23.60;65.80;;;;;;5032262;28;20469;-64
2023/11/05 01:54:53;;;;;;;8.80;8.50;;;23.60;65.90;;;;;;5032046;28;20984;-64
2023/11/05 01:57:20;;;;;;;8.90;8.67;;;23.50;65.70;;;;;;5031540;28;20990;-64
2023/11/05 01:59:48;;;;;;;8.83;8.63;;;23.50;65.70;;;;;;5032140;28;20487;-64
2023/11/05 02:02:15;;;;;;;9.37;9.07;;;23.50;65.80;;;;;;5024019;28;20515;-63
2023/11/05 02:04:44;;;;;;;8.80;8.60;;;23.50;65.80;;;;;;5031809;28;20480;-64
2023/11/05 02:07:11;;;;;;;9.40;9.00;;;23.50;65.90;;;;;;5032630;28;20497;-65
2023/11/05 02:09:37;;;;;;;9.57;9.07;;;23.50;65.90;;;;;;5031974;28;20499;-64
2023/11/05 02:12:04;;;;;;;8.20;8.00;;;23.50;65.90;;;;;;5031865;28;20852;-64
2023/11/05 02:14:32;;;;;;;8.83;8.60;;;23.50;66.00;;;;;;5023468;28;20202;-64
2023/11/05 02:17:00;;;;;;;8.97;8.77;;;23.50;66.00;;;;;;5031601;28;20476;-64
2023/11/05 02:19:27;;;;;;;8.80;8.60;;;23.50;66.00;;;;;;5032032;28;20487;-64
2023/11/05 02:21:59;;;;;;;8.73;8.53;;;23.50;66.10;;;;;;5031645;28;20555;-64
2023/11/05 02:24:27;;;;;;;9.03;8.73;;;23.50;66.10;;;;;;5031454;28;20491;-64
2023/11/05 02:26:58;;;;;;;9.20;9.00;;;23.50;66.10;;;;;;5031460;28;20932;-64
2023/11/05 02:29:25;;;;;;;9.13;8.83;;;23.50;66.20;;;;;;5031714;28;20464;-64
2023/11/05 02:31:52;;;;;;;8.77;8.57;;;23.50;66.20;;;;;;5031482;28;20552;-63
2023/11/05 02:34:19;;;;;;;8.53;8.33;;;23.50;66.20;;;;;;5023151;28;20477;-64
2023/11/05 02:36:46;;;;;;;8.40;8.10;;;23.50;66.10;;;;;;5031566;28;20488;-64
2023/11/05 02:39:13;;;;;;;8.50;8.30;;;23.50;66.10;;;;;;5028224;28;20477;-64
2023/11/05 02:41:42;;;;;;;8.77;8.47;;;23.50;66.20;;;;;;5026581;28;20476;-64
2023/11/05 02:44:08;;;;;;;8.17;7.97;;;23.50;66.20;;;;;;5031241;28;20445;-64
2023/11/05 02:46:35;;;;;;;8.90;8.60;;;23.50;66.20;;;;;;5031535;28;20995;-64
2023/11/05 02:49:02;;;;;;;8.27;8.07;;;23.40;66.10;;;;;;5031364;28;20481;-64
2023/11/05 02:51:29;;;;;;;8.83;8.63;;;23.50;66.20;;;;;;5031447;28;20785;-64
2023/11/05 02:53:56;;;;;;;8.93;8.70;;;23.40;66.10;;;;;;5023018;28;20532;-64
2023/11/05 02:56:23;;;;;;;8.93;8.73;;;23.50;66.30;;;;;;5061045;22;20528;-67
2023/11/05 02:58:51;;;;;;;9.27;9.07;;;23.50;66.40;;;;;;5055527;28;20849;-68
2023/11/05 03:01:27;;;;;;;8.00;7.80;;;23.50;66.40;;;;;;5047474;28;20504;-65
2023/11/05 03:03:54;;;;;;;8.90;8.70;;;23.50;66.30;;;;;;5054569;28;20452;-68
2023/11/05 03:06:21;;;;;;;9.17;8.97;;;23.50;66.40;;;;;;5055290;28;20509;-67
2023/11/05 03:08:48;;;;;;;8.90;8.70;;;23.40;66.30;;;;;;5046961;28;20494;-67
2023/11/05 03:11:15;;;;;;;8.97;8.77;;;23.40;66.20;;;;;;5043580;28;20963;-67
2023/11/05 03:13:42;;;;;;;8.37;8.17;;;23.40;66.30;;;;;;5045795;28;20958;-67
2023/11/05 03:16:12;;;;;;;9.07;8.87;;;23.50;66.50;;;;;;5044561;28;20467;-65
2023/11/05 03:18:39;;;;;;;9.27;9.00;;;23.40;66.30;;;;;;5043295;28;20536;-67
2023/11/05 03:21:06;;;;;;;8.07;7.87;;;23.40;66.20;;;;;;5044702;28;20485;-68
2023/11/05 03:23:33;;;;;;;8.43;8.23;;;23.40;66.30;;;;;;5046715;28;20805;-67
2023/11/05 03:26:00;;;;;;;9.97;9.77;;;23.40;66.30;;;;;;5045542;28;20466;-67
2023/11/05 03:28:27;;;;;;;9.07;8.87;;;23.40;66.40;;;;;;5043096;28;20485;-67
2023/11/05 03:30:54;;;;;;;8.40;8.20;;;23.40;66.40;;;;;;5042501;28;20971;-67
2023/11/05 03:33:23;;;;;;;8.03;7.87;;;23.40;66.40;;;;;;5046006;28;20444;-65
2023/11/05 03:35:50;;;;;;;8.80;8.60;;;23.40;66.50;;;;;;5046394;28;20443;-65
2023/11/05 03:38:17;;;;;;;8.97;8.73;;;23.40;66.40;;;;;;5042763;28;20456;-67
2023/11/05 03:40:44;;;;;;;8.83;8.63;;;23.40;66.40;;;;;;5042971;28;20477;-67
2023/11/05 03:43:11;;;;;;;8.70;8.20;;;23.40;66.50;;;;;;5044734;28;20572;-68
2023/11/05 03:45:38;;;;;;;9.07;8.77;;;23.40;66.50;;;;;;5046191;28;20478;-67
2023/11/05 03:48:07;;;;;;;8.30;8.10;;;23.40;66.60;;;;;;5044390;28;20530;-68
2023/11/05 03:50:36;;;;;;;8.77;8.47;;;23.40;66.70;;;;;;5042902;28;20916;-67
2023/11/05 03:53:02;;;;;;;8.47;8.20;;;23.40;66.60;;;;;;5042223;28;20448;-67
2023/11/05 03:55:29;;;;;;;8.60;8.40;;;23.40;66.70;;;;;;5042761;28;20528;-67
2023/11/05 03:57:56;;;;;;;8.70;8.43;;;23.40;66.70;;;;;;5041767;28;20503;-67
2023/11/05 04:00:23;;;;;;;8.70;8.50;;;23.40;66.70;;;;;;5044814;28;20523;-67
2023/11/05 04:02:50;;;;;;;8.67;8.40;;;23.40;66.80;;;;;;5044130;28;21059;-67
2023/11/05 04:05:17;;;;;;;8.60;8.40;;;23.40;66.80;;;;;;5041032;28;20896;-67
2023/11/05 04:07:46;;;;;;;9.17;8.97;;;23.40;66.90;;;;;;5040549;28;20515;-68
2023/11/05 04:10:15;;;;;;;8.90;8.70;;;23.40;67.00;;;;;;5043167;28;20477;-68
2023/11/05 04:12:41;;;;;;;9.37;9.10;;;23.40;67.00;;;;;;5044668;28;20523;-68
2023/11/05 04:15:09;;;;;;;9.20;9.00;;;23.50;67.20;;;;;;5042530;28;20468;-65
2023/11/05 04:17:36;;;;;;;8.60;8.40;;;23.50;67.20;;;;;;5041109;28;20844;-67
2023/11/05 04:20:05;;;;;;;8.50;8.30;;;23.50;67.20;;;;;;5041605;28;20477;-67
2023/11/05 04:22:32;;;;;;;8.40;8.20;;;23.50;67.20;;;;;;5044278;28;20476;-67
2023/11/05 04:25:01;;;;;;;8.10;7.90;;;23.50;67.30;;;;;;5043681;28;20479;-67
2023/11/05 04:27:28;;;;;;;8.60;8.40;;;23.50;67.30;;;;;;5040995;28;20465;-67
2023/11/05 04:29:55;;;;;;;8.03;7.83;;;23.50;67.30;;;;;;5040340;28;20480;-67
2023/11/05 04:32:23;;;;;;;8.63;8.40;;;23.50;67.30;;;;;;5032894;28;20445;-67
2023/11/05 04:34:50;;;;;;;8.97;8.67;;;23.50;67.30;;;;;;5040895;28;20797;-68
2023/11/05 04:37:17;;;;;;;8.77;8.57;;;23.50;67.40;;;;;;5036237;28;20908;-65
2023/11/05 04:39:44;;;;;;;9.00;8.80;;;23.50;67.40;;;;;;5035635;28;20487;-67
2023/11/05 04:42:13;;;;;;;8.50;8.30;;;23.50;67.40;;;;;;5041787;28;20520;-67
2023/11/05 04:44:40;;;;;;;8.70;8.50;;;23.50;67.40;;;;;;5040613;28;20472;-67
2023/11/05 04:47:07;;;;;;;8.50;8.30;;;23.50;67.50;;;;;;5041731;28;20501;-67
2023/11/05 04:49:34;;;;;;;8.40;8.20;;;23.50;67.50;;;;;;5044091;28;20444;-67
2023/11/05 04:52:01;;;;;;;8.70;8.50;;;23.50;67.50;;;;;;5043143;28;20526;-67
2023/11/05 04:54:28;;;;;;;8.67;8.47;;;23.50;67.50;;;;;;5040601;28;20477;-67
2023/11/05 04:56:55;;;;;;;8.27;8.07;;;23.60;67.60;;;;;;4995514;28;1118107;-67
2023/11/05 04:59:23;;;;;;;9.00;8.80;;;23.60;67.60;;;;;;5033569;28;20236;-67
2023/11/05 05:01:50;;;;;;;9.03;8.80;;;23.60;67.60;;;;;;5041228;28;20912;-67
2023/11/05 05:04:17;;;;;;;9.20;9.00;;;23.60;67.60;;;;;;5044379;28;20963;-68
2023/11/05 05:06:43;;;;;;;9.40;9.20;;;23.60;67.70;;;;;;5038320;28;20501;-67
2023/11/05 05:09:10;;;;;;;9.53;9.33;;;23.60;67.70;;;;;;5043156;28;20492;-67
2023/11/05 05:11:37;;;;;;;9.20;9.00;;;23.60;67.70;;;;;;5044690;28;20494;-65
2023/11/05 05:14:04;;;;;;;10.00;9.70;;;23.60;67.70;;;;;;5043484;28;20977;-67
2023/11/05 05:16:32;;;;;;;8.67;8.47;;;23.60;67.70;;;;;;5041051;28;20488;-67
2023/11/05 05:18:59;;;;;;;9.43;9.03;;;23.60;67.60;;;;;;5043641;28;21159;-67
2023/11/05 05:21:26;;;;;;;9.70;9.50;;;23.60;67.70;;;;;;5040892;28;20959;-67
2023/11/05 05:23:53;;;;;;;9.70;9.40;;;23.60;67.60;;;;;;5041083;28;20484;-67
2023/11/05 05:26:20;;;;;;;9.50;9.30;;;23.60;67.60;;;;;;5043232;28;20480;-67
2023/11/05 05:28:47;;;;;;;9.30;9.10;;;23.60;67.60;;;;;;5044406;28;20436;-67
2023/11/05 05:31:15;;;;;;;10.00;9.70;;;23.60;67.60;;;;;;5041987;28;20571;-67
2023/11/05 05:33:43;;;;;;;9.20;9.00;;;23.60;67.60;;;;;;5040780;28;20520;-67
2023/11/05 05:36:12;;;;;;;9.20;9.00;;;23.70;67.70;;;;;;5041612;28;20991;-67
2023/11/05 05:38:39;;;;;;;10.00;9.80;;;23.60;67.60;;;;;;5044260;28;20850;-67
2023/11/05 05:41:06;;;;;;;9.80;9.60;;;23.70;67.70;;;;;;5042991;28;20475;-67
2023/11/05 05:43:33;;;;;;;10.27;10.07;;;23.60;67.60;;;;;;5040553;28;20991;-67
2023/11/05 05:46:00;;;;;;;9.10;8.90;;;23.70;67.70;;;;;;5035996;28;21177;-67
2023/11/05 05:48:27;;;;;;;9.60;9.40;;;23.70;67.70;;;;;;5036614;28;20504;-67
2023/11/05 05:50:55;;;;;;;10.50;10.20;;;23.70;67.70;;;;;;5044197;28;20472;-65
2023/11/05 05:53:22;;;;;;;9.97;9.77;;;23.70;67.70;;;;;;5040626;28;20457;-65
2023/11/05 05:55:49;;;;;;;10.17;9.97;;;23.70;67.60;;;;;;5038699;28;20444;-67
2023/11/05 05:58:16;;;;;;;11.40;11.20;;;23.70;67.60;;;;;;5041409;28;20477;-67
2023/11/05 06:00:45;;;;;;;12.00;11.70;;;23.70;67.70;;;;;;5040345;28;20445;-67
2023/11/05 06:03:12;;;;;;;10.90;10.70;;;23.70;67.60;;;;;;5041830;28;21055;-67
2023/11/05 06:05:38;;;;;;;10.67;10.30;;;23.70;67.70;;;;;;5043526;28;20483;-67
2023/11/05 06:08:07;;;;;;;10.10;9.80;;;23.70;67.60;;;;;;5042374;28;20527;-67
2023/11/05 06:10:34;;;;;;;10.57;10.27;;;23.70;67.60;;;;;;5043705;28;20448;-65
2023/11/05 06:13:01;;;;;;;11.23;10.93;;;23.70;67.60;;;;;;5043124;28;20475;-65
2023/11/05 06:15:28;;;;;;;11.40;11.10;;;23.70;67.60;;;;;;5028221;28;20484;-65
2023/11/05 06:17:55;;;;;;;9.80;9.60;;;23.70;67.60;;;;;;5043535;28;20701;-65
2023/11/05 06:20:22;;;;;;;9.53;9.17;;;23.70;67.60;;;;;;5040187;28;20472;-67
2023/11/05 06:22:48;;;;;;;9.20;9.00;;;23.70;67.70;;;;;;5039896;28;20987;-67
2023/11/05 06:25:17;;;;;;;9.40;9.20;;;23.70;67.60;;;;;;5041490;28;20957;-67
2023/11/05 06:27:44;;;;;;;9.30;9.10;;;23.70;67.70;;;;;;5043267;28;20464;-67
2023/11/05 06:30:11;;;;;;;9.37;9.07;;;23.80;67.70;;;;;;5040835;28;20471;-67
2023/11/05 06:32:39;;;;;;;9.13;8.93;;;23.80;67.80;;;;;;5039845;28;20852;-67
2023/11/05 06:35:07;;;;;;;9.93;9.73;;;23.70;67.70;;;;;;5040002;28;20455;-66
2023/11/05 06:37:34;;;;;;;8.87;8.67;;;23.80;67.70;;;;;;5043124;28;20466;-67
2023/11/05 06:40:01;;;;;;;9.13;8.93;;;23.80;67.70;;;;;;5035080;28;20489;-67
2023/11/05 06:42:30;;;;;;;9.03;8.83;;;23.80;67.70;;;;;;5043270;28;20503;-67
2023/11/05 06:44:57;;;;;;;9.50;9.30;;;23.70;67.60;;;;;;5035405;28;20464;-67
2023/11/05 06:47:24;;;;;;;9.10;8.90;;;23.80;67.70;;;;;;5042749;28;20460;-67
2023/11/05 06:49:51;;;;;;;9.23;9.03;;;23.80;67.70;;;;;;5041664;28;20436;-67
2023/11/05 06:52:18;;;;;;;12.23;11.77;;;23.80;67.70;;;;;;5040638;28;20436;-65
2023/11/05 06:54:45;;;;;;;9.27;9.07;;;23.80;67.70;;;;;;5039289;28;20476;-65
2023/11/05 06:57:12;;;;;;;9.63;9.43;;;23.80;67.80;;;;;;5040759;28;20496;-65
2023/11/05 06:59:40;;;;;;;9.10;8.90;;;23.80;67.80;;;;;;5043023;28;20472;-65
2023/11/05 07:02:10;;;;;;;9.47;9.27;;;23.80;67.60;;;;;;5041982;28;20456;-67
2023/11/05 07:04:37;;;;;;;9.50;9.30;;;23.80;67.70;;;;;;5036655;28;20536;-67
2023/11/05 07:07:04;;;;;;;9.50;9.30;;;23.80;67.70;;;;;;5036779;28;20465;-67
2023/11/05 07:09:31;;;;;;;10.33;10.03;;;23.80;68.50;;;;;;5043154;28;20487;-65
2023/11/05 07:11:58;;;;;;;9.90;9.70;;;23.80;67.80;;;;;;5043294;28;20471;-67
2023/11/05 07:14:25;;;;;;;9.60;9.40;;;23.80;67.80;;;;;;5039471;28;20470;-67
2023/11/05 07:16:53;;;;;;;9.80;9.50;;;23.80;67.70;;;;;;5038842;28;20464;-67
2023/11/05 07:19:20;;;;;;;10.67;10.30;;;23.80;67.80;;;;;;5041904;28;20889;-67
2023/11/05 07:21:47;;;;;;;11.10;10.70;;;23.80;67.80;;;;;;5042891;28;20592;-65
2023/11/05 07:24:15;;;;;;;10.63;10.33;;;23.80;67.90;;;;;;5041044;28;20500;-65
2023/11/05 07:26:43;;;;;;;11.10;10.60;;;23.80;67.90;;;;;;5038650;28;20907;-65
2023/11/05 07:29:12;;;;;;;10.60;10.20;;;23.80;67.90;;;;;;5040567;28;20896;-65
2023/11/05 07:31:39;;;;;;;10.80;10.40;;;23.90;68.10;;;;;;5042892;28;20448;-65
2023/11/05 07:34:07;;;;;;;10.10;9.80;;;23.80;68.00;;;;;;5042110;28;20433;-65
2023/11/05 07:36:36;;;;;;;12.07;11.57;;;23.80;68.10;;;;;;5035987;28;20500;-66
2023/11/05 07:39:03;;;;;;;19.70;18.30;;;23.90;68.20;;;;;;5039482;28;20449;-67
2023/11/05 07:41:30;;;;;;;105.40;41.07;;;23.80;68.00;;;;;;5045051;28;20459;-67
2023/11/05 07:43:58;;;;;;;220.77;68.27;;;23.80;67.40;;;;;;5045643;28;20496;-67
2023/11/05 07:46:25;;;;;;;155.40;63.30;;;23.80;68.40;;;;;;5042982;28;20469;-67
2023/11/05 07:48:51;;;;;;;134.47;53.40;;;23.70;68.70;;;;;;5042929;28;20860;-67
2023/11/05 07:51:21;;;;;;;95.37;45.10;;;23.70;68.90;;;;;;5045172;28;20864;-67
2023/11/05 07:53:49;;;;;;;98.57;41.00;;;23.60;68.30;;;;;;5045560;28;20448;-67
2023/11/05 07:56:16;;;;;;;110.33;45.53;;;23.60;68.30;;;;;;5044220;28;20445;-65
2023/11/05 07:58:44;;;;;;;81.77;37.77;;;23.60;69.10;;;;;;5042922;28;20605;-66
2023/11/05 08:01:12;;;;;;;112.40;43.67;;;23.60;70.50;;;;;;5043578;28;20481;-66
2023/11/05 08:03:40;;;;;;;92.90;41.47;;;23.60;72.90;;;;;;5042049;28;20496;-64
2023/11/05 08:06:07;;;;;;;94.43;40.93;;;23.50;73.70;;;;;;5043079;28;20445;-66
2023/11/05 08:08:35;;;;;;;104.07;42.30;;;23.50;74.10;;;;;;5045872;28;20487;-66
2023/11/05 08:11:03;;;;;;;89.00;37.07;;;23.50;74.20;;;;;;5045822;28;20491;-64
2023/11/05 08:13:30;;;;;;;91.80;40.20;;;23.50;74.40;;;;;;5041758;28;20448;-66
2023/11/05 08:15:58;;;;;;;75.27;34.53;;;23.50;74.90;;;;;;5042690;28;20504;-67
2023/11/05 08:18:25;;;;;;;72.77;36.80;;;23.40;75.20;;;;;;5045049;28;21021;-66
2023/11/05 08:20:53;;;;;;;62.87;34.23;;;23.40;75.20;;;;;;5044907;28;20452;-66
2023/11/05 08:23:20;;;;;;;54.87;32.60;;;23.40;75.30;;;;;;5043288;28;20995;-64
2023/11/05 08:25:48;;;;;;;67.20;31.67;;;23.40;75.50;;;;;;5042369;28;20465;-66
2023/11/05 08:28:16;;;;;;;57.67;32.03;;;23.40;75.60;;;;;;5043336;28;20457;-66
2023/11/05 08:30:43;;;;;;;51.27;29.43;;;23.40;75.80;;;;;;5045031;28;20444;-66
2023/11/05 08:33:11;;;;;;;45.30;26.53;;;23.40;75.80;;;;;;5044485;28;20441;-67
2023/11/05 08:35:38;;;;;;;42.20;27.07;;;23.40;76.10;;;;;;5041969;28;20441;-65
2023/11/05 08:38:05;;;;;;;52.03;27.20;;;23.30;76.00;;;;;;5041886;28;20492;-68
2023/11/05 08:40:32;;;;;;;55.90;29.03;;;23.30;76.00;;;;;;5039731;28;20491;-67
2023/11/05 08:43:01;;;;;;;47.43;25.20;;;23.30;76.10;;;;;;5044923;28;20572;-67
2023/11/05 08:45:28;;;;;;;34.47;24.83;;;23.30;75.80;;;;;;5041809;28;20472;-67
2023/11/05 08:47:55;;;;;;;42.07;24.97;;;23.30;75.90;;;;;;5041522;28;20492;-67
2023/11/05 08:50:25;;;;;;;38.03;24.50;;;23.30;76.10;;;;;;5043362;28;20940;-67
2023/11/05 08:52:53;;;;;;;52.00;39.60;;;23.30;76.10;;;;;;5044281;28;20458;-67
2023/11/05 08:55:28;;;;;;;53.07;42.03;;;23.30;75.60;;;;;;5042729;28;20452;-69
2023/11/05 08:57:58;;;;;;;35.83;31.90;;;23.40;76.40;;;;;;5065604;22;20511;-74
2023/11/05 09:00:35;;;;;;;37.40;31.10;;;23.50;75.40;;;;;;5052944;28;20975;-68
2023/11/05 09:03:02;;;;;;;37.20;31.20;;;23.50;75.90;;;;;;5054639;28;20567;-68
2023/11/05 09:05:29;;;;;;;40.23;30.97;;;23.60;75.80;;;;;;5054389;28;20468;-68
2023/11/05 09:07:57;;;;;;;31.20;27.90;;;23.70;75.30;;;;;;5054168;28;20492;-68
2023/11/05 09:10:26;;;;;;;32.53;29.33;;;23.70;74.70;;;;;;5053883;28;20982;-68
2023/11/05 09:12:57;;;;;;;35.43;29.60;;;23.80;74.30;;;;;;5054432;28;20844;-68
2023/11/05 09:15:35;;;;;;;30.80;28.00;;;23.80;73.80;;;;;;5053061;28;20476;-68
2023/11/05 09:18:04;;;;;;;30.70;27.57;;;23.90;73.50;;;;;;5054187;28;20567;-68
2023/11/05 09:20:31;;;;;;;30.07;26.93;;;23.90;73.00;;;;;;5052733;28;20487;-68
2023/11/05 09:22:59;;;;;;;28.77;25.77;;;24.00;72.80;;;;;;5054073;28;20456;-68
2023/11/05 09:28:13;;;;;;;22.73;20.67;;;24.10;72.30;;;;;;5053293;28;20484;-72
2023/11/05 09:30:42;;;;;;;21.33;19.23;;;24.00;71.90;;;;;;5052399;28;20448;-70
2023/11/05 09:33:09;;;;;;;20.63;18.97;;;24.00;73.30;;;;;;5052816;28;20436;-70
2023/11/05 09:35:36;;;;;;;19.43;17.70;;;24.10;73.50;;;;;;5053803;28;20943;-69
2023/11/05 09:38:03;;;;;;;23.03;20.60;;;24.00;73.10;;;;;;5053906;28;20517;-70
2023/11/05 09:40:32;;;;;;;21.20;19.33;;;23.90;73.40;;;;;;5053497;28;20498;-70
2023/11/05 09:43:01;;;;;;;25.00;18.23;;;23.80;73.90;;;;;;5053375;28;20436;-70
2023/11/05 09:45:28;;;;;;;20.20;18.50;;;23.90;74.80;;;;;;5052772;28;20447;-70
2023/11/05 09:47:58;;;;;;;19.40;17.77;;;23.90;74.60;;;;;;5053084;28;20525;-70
2023/11/05 09:50:25;;;;;;;30.63;17.83;;;24.00;73.80;;;;;;5052694;28;20801;-71
2023/11/05 09:52:52;;;;;;;19.97;17.93;;;24.10;72.20;;;;;;5052653;28;20472;-70
2023/11/05 09:55:19;;;;;;;19.37;17.73;;;24.00;72.70;;;;;;5052343;28;20453;-70
2023/11/05 09:57:46;;;;;;;19.60;17.80;;;24.00;73.20;;;;;;5052184;28;20991;-70
2023/11/05 10:00:15;;;;;;;16.93;15.60;;;23.90;73.20;;;;;;5052125;28;20448;-69
2023/11/05 10:02:57;;;;;;;24.37;22.10;;;24.00;73.50;;;;;;5052187;28;20527;-76
2023/11/05 10:05:26;;;;;;;28.03;25.50;;;24.00;73.10;;;;;;5052009;28;20448;-71
2023/11/05 10:07:53;;;;;;;25.40;23.07;;;24.00;72.10;;;;;;5052134;28;20460;-67
2023/11/05 10:10:20;;;;;;;23.23;20.93;;;24.10;72.00;;;;;;5051903;28;20448;-69
2023/11/05 10:12:47;;;;;;;21.70;19.73;;;24.10;72.00;;;;;;5052181;28;20440;-67
2023/11/05 10:15:15;;;;;;;18.40;16.87;;;24.10;71.80;;;;;;5051357;28;20512;-70
2023/11/05 10:17:42;;;;;;;20.00;18.60;;;24.10;71.70;;;;;;5052171;28;20495;-74
2023/11/05 10:20:11;;;;;;;19.63;18.23;;;24.10;71.90;;;;;;5051678;28;20472;-69
2023/11/05 10:22:43;;;;;;;18.17;16.77;;;24.20;71.50;;;;;;5052019;28;20471;-70
2023/11/05 10:25:25;;;;;;;18.70;17.40;;;24.10;71.90;;;;;;5051791;28;21021;-70
2023/11/05 10:27:52;;;;;;;17.60;16.30;;;24.10;71.60;;;;;;5048888;28;20609;-70
2023/11/05 10:30:20;;;;;;;17.30;16.30;;;24.20;70.90;;;;;;5051479;28;20935;-69
2023/11/05 10:32:48;;;;;;;17.83;16.80;;;24.10;71.00;;;;;;5051688;28;20494;-72
2023/11/05 10:35:19;;;;;;;17.50;16.10;;;24.10;70.90;;;;;;5051391;28;20432;-71
2023/11/05 10:37:47;;;;;;;15.23;14.50;;;24.10;70.70;;;;;;5051358;28;20823;-70
2023/11/05 10:40:15;;;;;;;15.33;14.43;;;24.10;71.30;;;;;;5051216;28;20440;-70
2023/11/05 10:42:45;;;;;;;15.93;14.77;;;24.10;70.40;;;;;;5051529;28;20440;-70
2023/11/05 10:45:14;;;;;;;16.20;15.10;;;24.00;70.00;;;;;;5051064;28;20487;-71
2023/11/05 10:47:41;;;;;;;15.63;14.80;;;24.10;69.90;;;;;;5051298;28;20483;-71
2023/11/05 10:50:11;;;;;;;22.87;20.93;;;24.00;69.90;;;;;;5051367;28;20838;-71
2023/11/05 10:52:42;;;;;;;48.87;42.10;;;24.00;69.70;;;;;;5044018;28;20530;-70
2023/11/05 10:55:11;;;;;;;73.63;54.30;;;24.10;69.90;;;;;;5051279;28;20448;-70
2023/11/05 10:57:46;;;;;;;92.13;63.70;;;24.00;69.60;;;;;;5043295;28;20472;-70
2023/11/05 11:00:49;;;;;;;110.73;74.60;;;24.00;69.80;;;;;;5051117;28;20440;-71
2023/11/05 11:03:17;;;;;;;141.37;84.90;;;24.00;69.80;;;;;;5051125;28;20822;-70
2023/11/05 11:06:02;;;;;;;127.13;90.47;;;24.00;70.00;;;;;;5050976;28;20483;-70
2023/11/05 11:08:34;;;;;;;143.70;97.00;;;24.00;70.10;;;;;;5051156;28;20474;-71
2023/11/05 11:11:09;;;;;;;138.53;94.73;;;24.00;70.00;;;;;;5051526;28;20444;-72
2023/11/05 11:13:39;;;;;;;146.10;100.47;;;24.00;69.50;;;;;;5042998;28;20459;-70
2023/11/05 11:16:08;;;;;;;148.13;102.13;;;24.00;69.50;;;;;;5053435;28;20444;-71
2023/11/05 11:18:37;;;;;;;136.17;95.33;;;23.90;69.80;;;;;;5054680;28;20533;-71
2023/11/05 11:21:09;;;;;;;130.90;92.50;;;24.00;69.60;;;;;;5055158;28;20436;-71
2023/11/05 11:23:38;;;;;;;126.00;96.57;;;23.90;69.10;;;;;;5054678;28;20472;-71
2023/11/05 11:26:06;;;;;;;133.93;94.10;;;24.00;69.60;;;;;;5054829;28;20472;-70
2023/11/05 11:28:34;;;;;;;122.40;85.03;;;23.90;69.90;;;;;;5054857;28;20456;-70
2023/11/05 11:31:02;;;;;;;121.83;91.20;;;24.00;69.70;;;;;;5055155;28;20464;-72
2023/11/05 11:33:29;;;;;;;135.80;96.10;;;24.00;69.80;;;;;;5054604;28;20479;-73
2023/11/05 11:35:57;;;;;;;131.83;87.90;;;24.10;70.00;;;;;;5054371;28;20510;-70
2023/11/05 11:38:25;;;;;;;117.63;88.57;;;24.10;70.60;;;;;;5054759;28;20475;-68
2023/11/05 11:40:57;;;;;;;116.03;78.43;;;24.10;70.70;;;;;;5054375;28;20471;-71
2023/11/05 11:43:25;;;;;;;102.07;76.43;;;24.10;71.40;;;;;;5054479;28;20817;-71
2023/11/05 11:45:52;;;;;;;93.83;75.07;;;24.10;71.40;;;;;;5052635;28;20456;-73
2023/11/05 11:48:24;;;;;;;92.37;67.30;;;24.10;71.10;;;;;;5051736;28;20551;-71
2023/11/05 11:50:53;;;;;;;79.80;64.80;;;24.10;70.90;;;;;;5054453;28;20847;-71
2023/11/05 11:53:29;;;;;;;80.43;65.17;;;24.20;71.10;;;;;;5054218;28;20436;-70
2023/11/05 11:55:59;;;;;;;72.57;60.03;;;24.10;71.30;;;;;;5054383;28;20464;-70
2023/11/05 11:58:30;;;;;;;67.20;56.77;;;24.10;71.20;;;;;;5054121;28;20471;-71
2023/11/05 12:01:11;;;;;;;75.80;58.27;;;24.20;70.60;;;;;;5054193;28;20440;-70
2023/11/05 12:03:43;;;;;;;59.10;50.30;;;24.20;71.50;;;;;;5046171;28;20490;-70
2023/11/05 12:06:13;;;;;;;60.53;49.87;;;24.20;70.90;;;;;;5054020;28;20439;-71
2023/11/05 12:08:49;;;;;;;49.07;43.50;;;24.20;70.30;;;;;;5046188;28;20460;-69
2023/11/05 12:11:19;;;;;;;51.53;42.17;;;24.20;70.20;;;;;;5053989;28;20448;-71
2023/11/05 12:13:49;;;;;;;47.67;39.83;;;24.20;69.80;;;;;;5053805;28;20931;-73
2023/11/05 12:16:17;;;;;;;46.53;41.40;;;24.20;69.60;;;;;;5053615;28;20459;-71
2023/11/05 12:18:46;;;;;;;47.07;40.40;;;24.30;69.60;;;;;;5052040;28;20471;-70
2023/11/05 12:21:22;;;;;;;43.27;38.40;;;24.30;69.10;;;;;;5053664;28;20448;-69
2023/11/05 12:23:51;;;;;;;44.17;38.57;;;24.30;69.10;;;;;;5053659;28;20510;-70
2023/11/05 12:26:19;;;;;;;46.27;41.27;;;24.30;69.20;;;;;;5053293;28;20472;-71
2023/11/05 12:28:48;;;;;;;43.87;35.63;;;24.30;69.30;;;;;;5053379;28;20485;-70
2023/11/05 12:31:16;;;;;;;42.17;36.53;;;24.30;69.30;;;;;;5053590;28;20498;-71
2023/11/05 12:33:45;;;;;;;40.93;36.50;;;24.30;68.80;;;;;;5053694;28;20490;-69
2023/11/05 12:36:13;;;;;;;37.73;34.00;;;24.30;68.70;;;;;;5053682;28;20504;-69
2023/11/05 12:38:40;;;;;;;33.90;30.80;;;24.30;68.10;;;;;;5045497;28;20460;-71
2023/11/05 12:41:13;;;;;;;31.57;28.53;;;24.40;68.20;;;;;;5053898;28;20470;-70
2023/11/05 12:43:48;;;;;;;36.00;28.80;;;24.40;68.20;;;;;;5042455;28;20491;-72